This is the latest recevied weather packets stored in our database for station/object IW1CGW-13. If no packets are shown the sender has not sent any weather packets the latest 1 day(s).
| Time | Temp. | Humidity | Pressure | Rain* | Wind** | Luminosity | Snow |
|---|---|---|---|---|---|---|---|
| 1778096973 | 11.11° C | 81% | 1008.3 hPa | - | - | - | - |
| 1778096352 | 11.11° C | 80% | 1008.1 hPa | - | - | - | - |
| 1778094485 | 12.22° C | 80% | 1007.1 hPa | - | - | - | - |
| 1778093864 | 12.78° C | 80% | 1007 hPa | - | - | - | - |
| 1778086407 | 15.56° C | 79% | 1005.4 hPa | - | - | - | - |
| 1778084542 | 15.56° C | 78% | 1005.3 hPa | - | - | - | - |
| 1778083300 | 16.67° C | 77% | 1005.3 hPa | - | - | - | - |
| 1778080796 | 19.44° C | 75% | 1005 hPa | - | - | - | - |
| 1778077060 | 20.56° C | 76% | 1005.2 hPa | - | - | - | - |
| 1778075196 | 20° C | 79% | 1005.3 hPa | - | - | - | - |
| 1778072713 | 19.44° C | 77% | 1005.6 hPa | - | - | - | - |
| 1778072092 | 22.78° C | 77% | 1005.6 hPa | - | - | - | - |
| 1778069609 | 21.11° C | 77% | 1005.5 hPa | - | - | - | - |
| 1778067117 | 18.89° C | 80% | 1006 hPa | - | - | - | - |
| 1778065253 | 19.44° C | 78% | 1006.2 hPa | - | - | - | - |
| 1778064631 | 17.78° C | 80% | 1006.3 hPa | - | - | - | - |
| 1778064010 | 16.11° C | 79% | 1006.5 hPa | - | - | - | - |
| 1778062135 | 16.67° C | 81% | 1006.8 hPa | - | - | - | - |
| 1778061514 | 16.11° C | 81% | 1006.7 hPa | - | - | - | - |
| 1778060272 | 15° C | 82% | 1006.8 hPa | - | - | - | - |
| 1778059651 | 15° C | 78% | 1006.8 hPa | - | - | - | - |
| 1778059027 | 14.44° C | 82% | 1006.9 hPa | - | - | - | - |
| 1778056538 | 13.33° C | 85% | 1006.9 hPa | - | - | - | - |
| 1778054676 | 11.11° C | 85% | 1007 hPa | - | - | - | - |
| 1778054053 | 10° C | 85% | 1007.1 hPa | - | - | - | - |
* Rain since midnight (hover to see other rain measurements)
** Current wind speed in m/s (hover to see current wind gust speed)